sensor_id;sensor_type;location;lat;lon;timestamp;pressure;altitude;pressure_sealevel;temperature
22828;BMP180;11580;52.562;13.418;2023-02-18T00:01:45;100516.00;;;11.10
22828;BMP180;11580;52.562;13.418;2023-02-18T00:04:12;100515.00;;;11.10
22828;BMP180;11580;52.562;13.418;2023-02-18T00:06:39;100509.00;;;11.10
22828;BMP180;11580;52.562;13.418;2023-02-18T00:09:06;100494.00;;;11.10
22828;BMP180;11580;52.562;13.418;2023-02-18T00:11:35;100487.00;;;11.10
22828;BMP180;11580;52.562;13.418;2023-02-18T00:14:06;100492.00;;;11.10
22828;BMP180;11580;52.562;13.418;2023-02-18T00:16:35;100511.00;;;11.20
22828;BMP180;11580;52.562;13.418;2023-02-18T00:19:06;100492.00;;;11.10
22828;BMP180;11580;52.562;13.418;2023-02-18T00:21:35;100502.00;;;11.10
22828;BMP180;11580;52.562;13.418;2023-02-18T00:24:03;100503.00;;;11.10
22828;BMP180;11580;52.562;13.418;2023-02-18T00:26:30;100502.00;;;11.10
22828;BMP180;11580;52.562;13.418;2023-02-18T00:28:58;100512.00;;;11.10
22828;BMP180;11580;52.562;13.418;2023-02-18T00:31:28;100524.00;;;11.10
22828;BMP180;11580;52.562;13.418;2023-02-18T00:33:59;100513.00;;;11.00
22828;BMP180;11580;52.562;13.418;2023-02-18T00:36:28;100502.00;;;11.00
22828;BMP180;11580;52.562;13.418;2023-02-18T00:38:58;100519.00;;;11.00
22828;BMP180;11580;52.562;13.418;2023-02-18T00:41:28;100514.00;;;10.90
22828;BMP180;11580;52.562;13.418;2023-02-18T00:43:56;100519.00;;;10.90
22828;BMP180;11580;52.562;13.418;2023-02-18T00:46:25;100532.00;;;10.90
22828;BMP180;11580;52.562;13.418;2023-02-18T00:48:52;100516.00;;;10.80
22828;BMP180;11580;52.562;13.418;2023-02-18T00:51:22;100516.00;;;10.80
22828;BMP180;11580;52.562;13.418;2023-02-18T00:53:50;100534.00;;;10.80
22828;BMP180;11580;52.562;13.418;2023-02-18T00:56:18;100534.00;;;10.70
22828;BMP180;11580;52.562;13.418;2023-02-18T00:58:45;100537.00;;;10.70
22828;BMP180;11580;52.562;13.418;2023-02-18T01:01:13;100542.00;;;10.70
22828;BMP180;11580;52.562;13.418;2023-02-18T01:03:42;100529.00;;;10.60
22828;BMP180;11580;52.562;13.418;2023-02-18T01:06:11;100541.00;;;10.60
22828;BMP180;11580;52.562;13.418;2023-02-18T01:08:40;100539.00;;;10.60
22828;BMP180;11580;52.562;13.418;2023-02-18T01:11:10;100528.00;;;10.60
22828;BMP180;11580;52.562;13.418;2023-02-18T01:13:38;100521.00;;;10.50
22828;BMP180;11580;52.562;13.418;2023-02-18T01:16:06;100517.00;;;10.50
22828;BMP180;11580;52.562;13.418;2023-02-18T01:18:34;100518.00;;;10.50
22828;BMP180;11580;52.562;13.418;2023-02-18T01:21:04;100526.00;;;10.50
22828;BMP180;11580;52.562;13.418;2023-02-18T01:23:35;100526.00;;;10.50
22828;BMP180;11580;52.562;13.418;2023-02-18T01:26:04;100517.00;;;10.50
22828;BMP180;11580;52.562;13.418;2023-02-18T01:28:32;100536.00;;;10.50
22828;BMP180;11580;52.562;13.418;2023-02-18T01:31:05;100518.00;;;10.50
22828;BMP180;11580;52.562;13.418;2023-02-18T01:33:34;100532.00;;;10.50
22828;BMP180;11580;52.562;13.418;2023-02-18T01:36:02;100537.00;;;10.40
22828;BMP180;11580;52.562;13.418;2023-02-18T01:38:29;100538.00;;;10.40
22828;BMP180;11580;52.562;13.418;2023-02-18T01:40:56;100522.00;;;10.50
22828;BMP180;11580;52.562;13.418;2023-02-18T01:43:25;100513.00;;;10.50
22828;BMP180;11580;52.562;13.418;2023-02-18T01:46:12;100526.00;;;10.50
22828;BMP180;11580;52.562;13.418;2023-02-18T01:48:43;100524.00;;;10.50
22828;BMP180;11580;52.562;13.418;2023-02-18T01:51:17;100519.00;;;10.50
22828;BMP180;11580;52.562;13.418;2023-02-18T01:53:51;100540.00;;;10.50
22828;BMP180;11580;52.562;13.418;2023-02-18T01:56:26;100526.00;;;10.50
22828;BMP180;11580;52.562;13.418;2023-02-18T01:59:01;100520.00;;;10.50
22828;BMP180;11580;52.562;13.418;2023-02-18T02:01:31;100535.00;;;10.50
22828;BMP180;11580;52.562;13.418;2023-02-18T02:04:00;100528.00;;;10.50
22828;BMP180;11580;52.562;13.418;2023-02-18T02:06:28;100507.00;;;10.50
22828;BMP180;11580;52.562;13.418;2023-02-18T02:09:02;100536.00;;;10.50
22828;BMP180;11580;52.562;13.418;2023-02-18T02:12:12;100534.00;;;10.50
22828;BMP180;11580;52.562;13.418;2023-02-18T02:15:32;100545.00;;;10.50
22828;BMP180;11580;52.562;13.418;2023-02-18T02:18:22;100531.00;;;10.40
22828;BMP180;11580;52.562;13.418;2023-02-18T02:25:00;100544.00;;;10.50
22828;BMP180;11580;52.562;13.418;2023-02-18T02:27:53;100532.00;;;10.50
22828;BMP180;11580;52.562;13.418;2023-02-18T02:30:58;100544.00;;;10.40
22828;BMP180;11580;52.562;13.418;2023-02-18T02:36:51;100550.00;;;10.40
22828;BMP180;11580;52.562;13.418;2023-02-18T02:39:29;100532.00;;;10.40
22828;BMP180;11580;52.562;13.418;2023-02-18T02:42:08;100545.00;;;10.30
22828;BMP180;11580;52.562;13.418;2023-02-18T02:44:50;100541.00;;;10.30
22828;BMP180;11580;52.562;13.418;2023-02-18T02:47:35;100525.00;;;10.30
22828;BMP180;11580;52.562;13.418;2023-02-18T02:50:09;100533.00;;;10.30
22828;BMP180;11580;52.562;13.418;2023-02-18T02:52:47;100549.00;;;10.30
22828;BMP180;11580;52.562;13.418;2023-02-18T02:55:19;100547.00;;;10.30
22828;BMP180;11580;52.562;13.418;2023-02-18T02:57:52;100552.00;;;10.30
22828;BMP180;11580;52.562;13.418;2023-02-18T03:00:41;100545.00;;;10.20
22828;BMP180;11580;52.562;13.418;2023-02-18T03:03:52;100506.00;;;10.20
22828;BMP180;11580;52.562;13.418;2023-02-18T03:06:57;100536.00;;;10.20
22828;BMP180;11580;52.562;13.418;2023-02-18T03:09:42;100530.00;;;10.10
22828;BMP180;11580;52.562;13.418;2023-02-18T03:12:23;100539.00;;;10.10
22828;BMP180;11580;52.562;13.418;2023-02-18T03:15:04;100542.00;;;10.10
22828;BMP180;11580;52.562;13.418;2023-02-18T03:17:39;100526.00;;;10.10
22828;BMP180;11580;52.562;13.418;2023-02-18T03:20:14;100533.00;;;10.10
22828;BMP180;11580;52.562;13.418;2023-02-18T03:22:47;100537.00;;;10.00
22828;BMP180;11580;52.562;13.418;2023-02-18T03:25:18;100542.00;;;10.00
22828;BMP180;11580;52.562;13.418;2023-02-18T03:27:52;100544.00;;;10.00
22828;BMP180;11580;52.562;13.418;2023-02-18T03:30:28;100509.00;;;10.00
22828;BMP180;11580;52.562;13.418;2023-02-18T03:33:02;100538.00;;;10.00
22828;BMP180;11580;52.562;13.418;2023-02-18T03:35:30;100525.00;;;10.00
22828;BMP180;11580;52.562;13.418;2023-02-18T03:38:08;100520.00;;;10.00
22828;BMP180;11580;52.562;13.418;2023-02-18T03:40:38;100522.00;;;10.00
22828;BMP180;11580;52.562;13.418;2023-02-18T03:43:06;100525.00;;;10.00
22828;BMP180;11580;52.562;13.418;2023-02-18T03:45:33;100528.00;;;10.10
22828;BMP180;11580;52.562;13.418;2023-02-18T03:48:00;100528.00;;;10.10
22828;BMP180;11580;52.562;13.418;2023-02-18T03:50:28;100521.00;;;10.10
22828;BMP180;11580;52.562;13.418;2023-02-18T03:52:55;100523.00;;;10.10
22828;BMP180;11580;52.562;13.418;2023-02-18T03:55:22;100516.00;;;10.10
22828;BMP180;11580;52.562;13.418;2023-02-18T03:57:51;100522.00;;;10.20
22828;BMP180;11580;52.562;13.418;2023-02-18T04:00:19;100518.00;;;10.10
22828;BMP180;11580;52.562;13.418;2023-02-18T04:02:46;100526.00;;;10.20
22828;BMP180;11580;52.562;13.418;2023-02-18T04:05:14;100519.00;;;10.10
22828;BMP180;11580;52.562;13.418;2023-02-18T04:07:41;100538.00;;;10.10
22828;BMP180;11580;52.562;13.418;2023-02-18T04:10:09;100537.00;;;10.10
22828;BMP180;11580;52.562;13.418;2023-02-18T04:12:36;100528.00;;;10.10
22828;BMP180;11580;52.562;13.418;2023-02-18T04:15:05;100544.00;;;10.20
22828;BMP180;11580;52.562;13.418;2023-02-18T04:17:33;100548.00;;;10.20
22828;BMP180;11580;52.562;13.418;2023-02-18T04:20:00;100545.00;;;10.20
22828;BMP180;11580;52.562;13.418;2023-02-18T04:22:29;100553.00;;;10.20
22828;BMP180;11580;52.562;13.418;2023-02-18T04:24:56;100551.00;;;10.20
22828;BMP180;11580;52.562;13.418;2023-02-18T04:27:24;100553.00;;;10.30
22828;BMP180;11580;52.562;13.418;2023-02-18T04:29:51;100556.00;;;10.20
22828;BMP180;11580;52.562;13.418;2023-02-18T04:32:20;100548.00;;;10.20
22828;BMP180;11580;52.562;13.418;2023-02-18T04:34:47;100565.00;;;10.20
22828;BMP180;11580;52.562;13.418;2023-02-18T04:37:14;100564.00;;;10.20
22828;BMP180;11580;52.562;13.418;2023-02-18T04:39:41;100571.00;;;10.10
22828;BMP180;11580;52.562;13.418;2023-02-18T04:42:08;100553.00;;;10.10
22828;BMP180;11580;52.562;13.418;2023-02-18T04:44:36;100551.00;;;10.10
22828;BMP180;11580;52.562;13.418;2023-02-18T04:47:05;100547.00;;;10.10
22828;BMP180;11580;52.562;13.418;2023-02-18T04:49:34;100553.00;;;10.10
22828;BMP180;11580;52.562;13.418;2023-02-18T04:52:02;100555.00;;;10.10
22828;BMP180;11580;52.562;13.418;2023-02-18T04:54:29;100558.00;;;10.10
22828;BMP180;11580;52.562;13.418;2023-02-18T04:56:56;100557.00;;;10.00
22828;BMP180;11580;52.562;13.418;2023-02-18T04:59:24;100555.00;;;10.00
22828;BMP180;11580;52.562;13.418;2023-02-18T05:01:51;100563.00;;;10.00
22828;BMP180;11580;52.562;13.418;2023-02-18T05:04:18;100560.00;;;10.00
22828;BMP180;11580;52.562;13.418;2023-02-18T05:06:47;100569.00;;;10.00
22828;BMP180;11580;52.562;13.418;2023-02-18T05:09:14;100558.00;;;10.00
22828;BMP180;11580;52.562;13.418;2023-02-18T05:11:42;100555.00;;;10.00
22828;BMP180;11580;52.562;13.418;2023-02-18T05:14:09;100558.00;;;10.00
22828;BMP180;11580;52.562;13.418;2023-02-18T05:16:36;100558.00;;;10.00
22828;BMP180;11580;52.562;13.418;2023-02-18T05:19:04;100558.00;;;10.00
22828;BMP180;11580;52.562;13.418;2023-02-18T05:21:31;100562.00;;;10.10
22828;BMP180;11580;52.562;13.418;2023-02-18T05:24:00;100557.00;;;10.10
22828;BMP180;11580;52.562;13.418;2023-02-18T05:26:27;100563.00;;;10.10
22828;BMP180;11580;52.562;13.418;2023-02-18T05:28:54;100554.00;;;10.10
22828;BMP180;11580;52.562;13.418;2023-02-18T05:31:22;100566.00;;;10.20
22828;BMP180;11580;52.562;13.418;2023-02-18T05:33:49;100543.00;;;10.20
22828;BMP180;11580;52.562;13.418;2023-02-18T05:36:16;100553.00;;;10.30
22828;BMP180;11580;52.562;13.418;2023-02-18T05:38:43;100545.00;;;10.30
22828;BMP180;11580;52.562;13.418;2023-02-18T05:41:12;100556.00;;;10.40
22828;BMP180;11580;52.562;13.418;2023-02-18T05:43:39;100551.00;;;10.50
22828;BMP180;11580;52.562;13.418;2023-02-18T05:46:20;100552.00;;;10.50
22828;BMP180;11580;52.562;13.418;2023-02-18T05:48:47;100546.00;;;10.60
22828;BMP180;11580;52.562;13.418;2023-02-18T05:51:15;100546.00;;;10.70
22828;BMP180;11580;52.562;13.418;2023-02-18T05:53:42;100552.00;;;10.80
22828;BMP180;11580;52.562;13.418;2023-02-18T05:56:09;100551.00;;;10.80
22828;BMP180;11580;52.562;13.418;2023-02-18T05:58:38;100551.00;;;10.90
22828;BMP180;11580;52.562;13.418;2023-02-18T06:01:05;100563.00;;;11.00
22828;BMP180;11580;52.562;13.418;2023-02-18T06:03:32;100565.00;;;11.00
22828;BMP180;11580;52.562;13.418;2023-02-18T06:05:59;100565.00;;;11.10
22828;BMP180;11580;52.562;13.418;2023-02-18T06:08:27;100567.00;;;11.10
22828;BMP180;11580;52.562;13.418;2023-02-18T06:10:54;100554.00;;;11.20
22828;BMP180;11580;52.562;13.418;2023-02-18T06:13:21;100556.00;;;11.20
22828;BMP180;11580;52.562;13.418;2023-02-18T06:15:51;100558.00;;;11.30
22828;BMP180;11580;52.562;13.418;2023-02-18T06:18:20;100554.00;;;11.30
22828;BMP180;11580;52.562;13.418;2023-02-18T06:20:47;100555.00;;;11.40
22828;BMP180;11580;52.562;13.418;2023-02-18T06:23:15;100556.00;;;11.40
22828;BMP180;11580;52.562;13.418;2023-02-18T06:25:42;100556.00;;;11.50
22828;BMP180;11580;52.562;13.418;2023-02-18T06:28:09;100549.00;;;11.50
22828;BMP180;11580;52.562;13.418;2023-02-18T06:30:36;100554.00;;;11.60
22828;BMP180;11580;52.562;13.418;2023-02-18T06:33:05;100565.00;;;11.60
22828;BMP180;11580;52.562;13.418;2023-02-18T06:35:32;100557.00;;;11.70
22828;BMP180;11580;52.562;13.418;2023-02-18T06:37:59;100561.00;;;11.70
22828;BMP180;11580;52.562;13.418;2023-02-18T06:40:27;100552.00;;;11.80
22828;BMP180;11580;52.562;13.418;2023-02-18T06:42:54;100555.00;;;11.80
22828;BMP180;11580;52.562;13.418;2023-02-18T06:45:21;100551.00;;;11.90
22828;BMP180;11580;52.562;13.418;2023-02-18T06:47:49;100550.00;;;11.90
22828;BMP180;11580;52.562;13.418;2023-02-18T06:50:17;100552.00;;;11.90
22828;BMP180;11580;52.562;13.418;2023-02-18T06:52:44;100550.00;;;12.00
22828;BMP180;11580;52.562;13.418;2023-02-18T06:55:12;100531.00;;;12.00
22828;BMP180;11580;52.562;13.418;2023-02-18T06:57:39;100547.00;;;12.00
22828;BMP180;11580;52.562;13.418;2023-02-18T07:00:08;100545.00;;;12.10
22828;BMP180;11580;52.562;13.418;2023-02-18T07:02:35;100547.00;;;12.10
22828;BMP180;11580;52.562;13.418;2023-02-18T07:05:03;100527.00;;;12.10
22828;BMP180;11580;52.562;13.418;2023-02-18T07:07:31;100550.00;;;12.20
22828;BMP180;11580;52.562;13.418;2023-02-18T07:09:58;100533.00;;;12.20
22828;BMP180;11580;52.562;13.418;2023-02-18T07:12:26;100542.00;;;12.20
22828;BMP180;11580;52.562;13.418;2023-02-18T07:14:53;100537.00;;;12.30
22828;BMP180;11580;52.562;13.418;2023-02-18T07:17:20;100540.00;;;12.30
22828;BMP180;11580;52.562;13.418;2023-02-18T07:19:47;100541.00;;;12.30
22828;BMP180;11580;52.562;13.418;2023-02-18T07:22:15;100536.00;;;12.40
22828;BMP180;11580;52.562;13.418;2023-02-18T07:24:43;100526.00;;;12.40
22828;BMP180;11580;52.562;13.418;2023-02-18T07:27:11;100518.00;;;12.50
22828;BMP180;11580;52.562;13.418;2023-02-18T07:29:38;100521.00;;;12.50
22828;BMP180;11580;52.562;13.418;2023-02-18T07:32:05;100526.00;;;12.50
22828;BMP180;11580;52.562;13.418;2023-02-18T07:34:32;100531.00;;;12.60
22828;BMP180;11580;52.562;13.418;2023-02-18T07:36:59;100530.00;;;12.60
22828;BMP180;11580;52.562;13.418;2023-02-18T07:39:26;100528.00;;;12.60
22828;BMP180;11580;52.562;13.418;2023-02-18T07:41:55;100513.00;;;12.70
22828;BMP180;11580;52.562;13.418;2023-02-18T07:44:23;100518.00;;;12.70
22828;BMP180;11580;52.562;13.418;2023-02-18T07:46:52;100499.00;;;12.80
22828;BMP180;11580;52.562;13.418;2023-02-18T07:49:19;100510.00;;;12.80
22828;BMP180;11580;52.562;13.418;2023-02-18T07:51:46;100514.00;;;12.90
22828;BMP180;11580;52.562;13.418;2023-02-18T07:54:14;100517.00;;;12.90
22828;BMP180;11580;52.562;13.418;2023-02-18T07:56:41;100506.00;;;13.00
22828;BMP180;11580;52.562;13.418;2023-02-18T07:59:11;100509.00;;;13.00
22828;BMP180;11580;52.562;13.418;2023-02-18T08:01:39;100497.00;;;13.00
22828;BMP180;11580;52.562;13.418;2023-02-18T08:04:06;100514.00;;;13.10
22828;BMP180;11580;52.562;13.418;2023-02-18T08:06:37;100506.00;;;13.10
22828;BMP180;11580;52.562;13.418;2023-02-18T08:09:04;100494.00;;;13.20
22828;BMP180;11580;52.562;13.418;2023-02-18T08:11:33;100482.00;;;13.20
22828;BMP180;11580;52.562;13.418;2023-02-18T08:14:01;100490.00;;;13.20
22828;BMP180;11580;52.562;13.418;2023-02-18T08:16:29;100480.00;;;13.20
22828;BMP180;11580;52.562;13.418;2023-02-18T08:18:56;100477.00;;;13.20
22828;BMP180;11580;52.562;13.418;2023-02-18T08:21:25;100476.00;;;13.20
22828;BMP180;11580;52.562;13.418;2023-02-18T08:23:52;100475.00;;;13.30
22828;BMP180;11580;52.562;13.418;2023-02-18T08:26:20;100474.00;;;13.30
22828;BMP180;11580;52.562;13.418;2023-02-18T08:28:48;100461.00;;;13.20
22828;BMP180;11580;52.562;13.418;2023-02-18T08:31:17;100462.00;;;13.30
22828;BMP180;11580;52.562;13.418;2023-02-18T08:33:46;100459.00;;;13.30
22828;BMP180;11580;52.562;13.418;2023-02-18T08:36:14;100461.00;;;13.30
22828;BMP180;11580;52.562;13.418;2023-02-18T08:38:41;100464.00;;;13.30
22828;BMP180;11580;52.562;13.418;2023-02-18T08:41:09;100454.00;;;13.30
22828;BMP180;11580;52.562;13.418;2023-02-18T08:43:36;100455.00;;;13.30
22828;BMP180;11580;52.562;13.418;2023-02-18T08:46:04;100455.00;;;13.30
22828;BMP180;11580;52.562;13.418;2023-02-18T08:48:31;100453.00;;;13.30
22828;BMP180;11580;52.562;13.418;2023-02-18T08:51:10;100452.00;;;13.30
22828;BMP180;11580;52.562;13.418;2023-02-18T08:53:37;100458.00;;;13.20
22828;BMP180;11580;52.562;13.418;2023-02-18T08:56:06;100451.00;;;13.20
22828;BMP180;11580;52.562;13.418;2023-02-18T08:58:34;100449.00;;;13.20
22828;BMP180;11580;52.562;13.418;2023-02-18T09:01:05;100447.00;;;13.20
22828;BMP180;11580;52.562;13.418;2023-02-18T09:03:32;100445.00;;;13.20
22828;BMP180;11580;52.562;13.418;2023-02-18T09:06:02;100442.00;;;13.20
22828;BMP180;11580;52.562;13.418;2023-02-18T09:08:30;100440.00;;;13.20
22828;BMP180;11580;52.562;13.418;2023-02-18T09:10:59;100436.00;;;13.30
22828;BMP180;11580;52.562;13.418;2023-02-18T09:13:27;100428.00;;;13.30
22828;BMP180;11580;52.562;13.418;2023-02-18T09:16:00;100424.00;;;13.30
22828;BMP180;11580;52.562;13.418;2023-02-18T09:18:28;100426.00;;;13.30
22828;BMP180;11580;52.562;13.418;2023-02-18T09:20:56;100436.00;;;13.40
22828;BMP180;11580;52.562;13.418;2023-02-18T09:23:26;100402.00;;;13.40
22828;BMP180;11580;52.562;13.418;2023-02-18T09:25:54;100418.00;;;13.50
22828;BMP180;11580;52.562;13.418;2023-02-18T09:28:22;100411.00;;;13.50
22828;BMP180;11580;52.562;13.418;2023-02-18T09:30:49;100413.00;;;13.50
22828;BMP180;11580;52.562;13.418;2023-02-18T09:33:17;100421.00;;;13.60
22828;BMP180;11580;52.562;13.418;2023-02-18T09:35:45;100410.00;;;13.60
22828;BMP180;11580;52.562;13.418;2023-02-18T09:38:16;100406.00;;;13.70
22828;BMP180;11580;52.562;13.418;2023-02-18T09:40:49;100402.00;;;13.70
22828;BMP180;11580;52.562;13.418;2023-02-18T09:43:31;100389.00;;;13.80
22828;BMP180;11580;52.562;13.418;2023-02-18T09:46:02;100385.00;;;13.80
22828;BMP180;11580;52.562;13.418;2023-02-18T09:48:33;100340.00;;;13.90
22828;BMP180;11580;52.562;13.418;2023-02-18T09:51:02;100359.00;;;14.00
22828;BMP180;11580;52.562;13.418;2023-02-18T09:53:29;100360.00;;;14.00
22828;BMP180;11580;52.562;13.418;2023-02-18T09:55:59;100350.00;;;14.10
22828;BMP180;11580;52.562;13.418;2023-02-18T09:58:31;100343.00;;;14.20
22828;BMP180;11580;52.562;13.418;2023-02-18T10:01:06;100348.00;;;14.20
22828;BMP180;11580;52.562;13.418;2023-02-18T10:03:37;100337.00;;;14.30
22828;BMP180;11580;52.562;13.418;2023-02-18T10:06:10;100330.00;;;14.30
22828;BMP180;11580;52.562;13.418;2023-02-18T10:08:43;100321.00;;;14.30
22828;BMP180;11580;52.562;13.418;2023-02-18T10:11:15;100317.00;;;14.30
22828;BMP180;11580;52.562;13.418;2023-02-18T10:13:44;100324.00;;;14.30
22828;BMP180;11580;52.562;13.418;2023-02-18T10:16:18;100319.00;;;14.30
22828;BMP180;11580;52.562;13.418;2023-02-18T10:18:51;100316.00;;;14.30
22828;BMP180;11580;52.562;13.418;2023-02-18T10:21:23;100306.00;;;14.30
22828;BMP180;11580;52.562;13.418;2023-02-18T10:23:58;100293.00;;;14.30
22828;BMP180;11580;52.562;13.418;2023-02-18T10:26:28;100285.00;;;14.30
22828;BMP180;11580;52.562;13.418;2023-02-18T10:28:58;100264.00;;;14.30
22828;BMP180;11580;52.562;13.418;2023-02-18T10:31:32;100263.00;;;14.30
22828;BMP180;11580;52.562;13.418;2023-02-18T10:34:12;100254.00;;;14.30
22828;BMP180;11580;52.562;13.418;2023-02-18T10:36:48;100254.00;;;14.30
22828;BMP180;11580;52.562;13.418;2023-02-18T10:39:41;100221.00;;;14.30
22828;BMP180;11580;52.562;13.418;2023-02-18T10:42:29;100217.00;;;14.30
22828;BMP180;11580;52.562;13.418;2023-02-18T10:45:15;100208.00;;;14.30
22828;BMP180;11580;52.562;13.418;2023-02-18T10:48:01;100202.00;;;14.30
22828;BMP180;11580;52.562;13.418;2023-02-18T10:50:38;100193.00;;;14.30
22828;BMP180;11580;52.562;13.418;2023-02-18T10:53:11;100186.00;;;14.30
22828;BMP180;11580;52.562;13.418;2023-02-18T10:55:42;100182.00;;;14.30
22828;BMP180;11580;52.562;13.418;2023-02-18T10:58:41;100176.00;;;14.30
22828;BMP180;11580;52.562;13.418;2023-02-18T11:01:15;100166.00;;;14.30
22828;BMP180;11580;52.562;13.418;2023-02-18T11:03:45;100151.00;;;14.30
22828;BMP180;11580;52.562;13.418;2023-02-18T11:06:23;100153.00;;;14.40
22828;BMP180;11580;52.562;13.418;2023-02-18T11:08:54;100144.00;;;14.30
22828;BMP180;11580;52.562;13.418;2023-02-18T11:11:28;100136.00;;;14.30
22828;BMP180;11580;52.562;13.418;2023-02-18T11:14:00;100109.00;;;14.30
22828;BMP180;11580;52.562;13.418;2023-02-18T11:16:38;100116.00;;;14.40
22828;BMP180;11580;52.562;13.418;2023-02-18T11:19:35;100095.00;;;14.40
22828;BMP180;11580;52.562;13.418;2023-02-18T11:22:12;100098.00;;;14.40
22828;BMP180;11580;52.562;13.418;2023-02-18T11:24:41;100090.00;;;14.50
22828;BMP180;11580;52.562;13.418;2023-02-18T11:27:21;100075.00;;;14.50
22828;BMP180;11580;52.562;13.418;2023-02-18T11:29:54;100078.00;;;14.50
22828;BMP180;11580;52.562;13.418;2023-02-18T11:32:26;100074.00;;;14.50
22828;BMP180;11580;52.562;13.418;2023-02-18T11:34:55;100051.00;;;14.50
22828;BMP180;11580;52.562;13.418;2023-02-18T11:37:23;100034.00;;;14.50
22828;BMP180;11580;52.562;13.418;2023-02-18T11:39:54;100047.00;;;14.50
22828;BMP180;11580;52.562;13.418;2023-02-18T11:42:25;100040.00;;;14.50
22828;BMP180;11580;52.562;13.418;2023-02-18T11:44:56;100037.00;;;14.40
22828;BMP180;11580;52.562;13.418;2023-02-18T11:47:27;100013.00;;;14.40
22828;BMP180;11580;52.562;13.418;2023-02-18T11:50:20;100021.00;;;14.30
22828;BMP180;11580;52.562;13.418;2023-02-18T11:52:50;100008.00;;;14.30
22828;BMP180;11580;52.562;13.418;2023-02-18T11:55:22;100009.00;;;14.20
22828;BMP180;11580;52.562;13.418;2023-02-18T11:57:56;99969.00;;;14.20
22828;BMP180;11580;52.562;13.418;2023-02-18T12:00:36;99982.00;;;14.10
22828;BMP180;11580;52.562;13.418;2023-02-18T12:03:14;99986.00;;;14.10
22828;BMP180;11580;52.562;13.418;2023-02-18T12:05:45;99987.00;;;14.10
22828;BMP180;11580;52.562;13.418;2023-02-18T12:08:20;99954.00;;;14.10
22828;BMP180;11580;52.562;13.418;2023-02-18T12:10:51;99932.00;;;14.20
22828;BMP180;11580;52.562;13.418;2023-02-18T12:13:27;99932.00;;;14.20
22828;BMP180;11580;52.562;13.418;2023-02-18T12:16:10;99938.00;;;14.30
22828;BMP180;11580;52.562;13.418;2023-02-18T12:19:09;99949.00;;;14.30
22828;BMP180;11580;52.562;13.418;2023-02-18T12:21:54;99936.00;;;14.30
22828;BMP180;11580;52.562;13.418;2023-02-18T12:24:59;99925.00;;;14.40
22828;BMP180;11580;52.562;13.418;2023-02-18T12:27:37;99906.00;;;14.40
22828;BMP180;11580;52.562;13.418;2023-02-18T12:30:38;99929.00;;;14.40
22828;BMP180;11580;52.562;13.418;2023-02-18T12:33:20;99914.00;;;14.40
22828;BMP180;11580;52.562;13.418;2023-02-18T12:36:07;99911.00;;;14.40
22828;BMP180;11580;52.562;13.418;2023-02-18T12:38:58;99908.00;;;14.40
22828;BMP180;11580;52.562;13.418;2023-02-18T12:41:56;99900.00;;;14.40
22828;BMP180;11580;52.562;13.418;2023-02-18T12:44:42;99897.00;;;14.40
22828;BMP180;11580;52.562;13.418;2023-02-18T12:47:38;99887.00;;;14.50
22828;BMP180;11580;52.562;13.418;2023-02-18T12:50:33;99890.00;;;14.50
22828;BMP180;11580;52.562;13.418;2023-02-18T12:53:51;99895.00;;;14.50
22828;BMP180;11580;52.562;13.418;2023-02-18T12:57:04;99868.00;;;14.60
22828;BMP180;11580;52.562;13.418;2023-02-18T12:59:56;99845.00;;;14.60
22828;BMP180;11580;52.562;13.418;2023-02-18T13:02:51;99864.00;;;14.70
22828;BMP180;11580;52.562;13.418;2023-02-18T13:05:31;99857.00;;;14.80
22828;BMP180;11580;52.562;13.418;2023-02-18T13:08:32;99860.00;;;14.80
22828;BMP180;11580;52.562;13.418;2023-02-18T13:11:30;99852.00;;;14.90
22828;BMP180;11580;52.562;13.418;2023-02-18T13:14:11;99842.00;;;15.00
22828;BMP180;11580;52.562;13.418;2023-02-18T13:16:43;99847.00;;;15.10
22828;BMP180;11580;52.562;13.418;2023-02-18T13:19:20;99843.00;;;15.10
22828;BMP180;11580;52.562;13.418;2023-02-18T13:21:52;99848.00;;;15.20
22828;BMP180;11580;52.562;13.418;2023-02-18T13:24:30;99839.00;;;15.20
22828;BMP180;11580;52.562;13.418;2023-02-18T13:27:13;99845.00;;;15.20
22828;BMP180;11580;52.562;13.418;2023-02-18T13:29:50;99852.00;;;15.30
22828;BMP180;11580;52.562;13.418;2023-02-18T13:32:26;99855.00;;;15.30
22828;BMP180;11580;52.562;13.418;2023-02-18T13:35:06;99856.00;;;15.30
22828;BMP180;11580;52.562;13.418;2023-02-18T13:37:47;99856.00;;;15.20
22828;BMP180;11580;52.562;13.418;2023-02-18T13:40:23;99829.00;;;15.20
22828;BMP180;11580;52.562;13.418;2023-02-18T13:42:57;99828.00;;;15.20
22828;BMP180;11580;52.562;13.418;2023-02-18T13:45:41;99826.00;;;15.20
22828;BMP180;11580;52.562;13.418;2023-02-18T13:48:24;99824.00;;;15.30
22828;BMP180;11580;52.562;13.418;2023-02-18T13:51:00;99828.00;;;15.30
22828;BMP180;11580;52.562;13.418;2023-02-18T13:53:31;99826.00;;;15.30
22828;BMP180;11580;52.562;13.418;2023-02-18T13:56:06;99819.00;;;15.30
22828;BMP180;11580;52.562;13.418;2023-02-18T13:58:43;99790.00;;;15.30
22828;BMP180;11580;52.562;13.418;2023-02-18T14:01:22;99839.00;;;15.30
22828;BMP180;11580;52.562;13.418;2023-02-18T14:03:59;99832.00;;;15.30
22828;BMP180;11580;52.562;13.418;2023-02-18T14:06:31;99801.00;;;15.30
22828;BMP180;11580;52.562;13.418;2023-02-18T14:09:34;99812.00;;;15.20
22828;BMP180;11580;52.562;13.418;2023-02-18T14:12:24;99822.00;;;15.20
22828;BMP180;11580;52.562;13.418;2023-02-18T14:14:53;99832.00;;;15.20
22828;BMP180;11580;52.562;13.418;2023-02-18T14:17:37;99806.00;;;15.10
22828;BMP180;11580;52.562;13.418;2023-02-18T14:20:44;99821.00;;;15.10
22828;BMP180;11580;52.562;13.418;2023-02-18T14:23:37;99832.00;;;15.00
22828;BMP180;11580;52.562;13.418;2023-02-18T14:26:07;99842.00;;;15.00
22828;BMP180;11580;52.562;13.418;2023-02-18T14:28:43;99843.00;;;15.00